Time;durP1;ratioP1;P1;durP2;ratioP2;P2;SDS_P1;SDS_P2;PMS_P1;PMS_P2;Temp;Humidity;BMP_temperature;BMP_pressure;BME280_temperature;BME280_humidity;BME280_pressure;Samples;Min_cycle;Max_cycle;Signal;HPM_P1;HPM_P2
2022/09/03 00:02:37;;;;;;;0.98;0.80;;;;;;;20.22;38.65;98371.06;4919180;29;20040;-67
2022/09/03 00:05:10;;;;;;;1.15;1.05;;;;;;;20.21;38.23;98372.94;4884424;29;20571;-67
2022/09/03 00:08:12;;;;;;;1.50;1.00;;;;;;;20.22;38.30;98376.41;4919064;29;20067;-67
2022/09/03 00:10:51;;;;;;;1.90;0.80;;;;;;;20.18;38.71;98369.97;4919348;29;20492;-67
2022/09/03 00:13:36;;;;;;;1.50;1.30;;;;;;;20.17;38.61;98369.16;4917575;29;20063;-67
2022/09/03 00:16:09;;;;;;;1.30;1.20;;;;;;;20.15;38.57;98365.94;4918358;29;20411;-67
2022/09/03 00:18:43;;;;;;;1.20;1.08;;;;;;;20.14;38.67;98364.31;4917232;29;20051;-67
2022/09/03 00:21:16;;;;;;;1.13;1.02;;;;;;;20.16;38.84;98361.38;4901491;29;20487;-67
2022/09/03 00:23:46;;;;;;;1.17;1.05;;;;;;;20.17;39.06;98363.00;4917309;29;20044;-67
2022/09/03 00:26:13;;;;;;;1.00;0.90;;;;;;;20.18;38.66;98364.59;4916864;29;20424;-67
2022/09/03 00:29:06;;;;;;;1.25;1.02;;;;;;;20.15;38.86;98359.75;4917509;29;20060;-67
2022/09/03 00:31:44;;;;;;;0.63;0.63;;;;;;;20.13;39.08;98359.22;4918684;29;20048;-68
2022/09/03 00:34:21;;;;;;;0.73;0.73;;;;;;;20.12;38.90;98362.97;4910557;29;20048;-68
2022/09/03 00:36:48;;;;;;;0.55;0.55;;;;;;;20.11;39.05;98369.41;4918834;29;20048;-68
2022/09/03 00:39:18;;;;;;;0.90;0.90;;;;;;;20.11;39.35;98372.91;4919191;29;20055;-67
2022/09/03 00:41:58;;;;;;;1.73;1.27;;;;;;;20.08;38.98;98376.09;4919103;29;20056;-67
2022/09/03 00:44:47;;;;;;;1.05;1.02;;;;;;;20.02;39.07;98375.28;4919031;29;20048;-67
2022/09/03 00:47:44;;;;;;;1.15;1.05;;;;;;;19.97;39.23;98369.13;4918448;29;20047;-68
2022/09/03 00:50:29;;;;;;;1.30;1.20;;;;;;;19.91;39.13;98370.97;4918916;29;20131;-67
2022/09/03 00:53:08;;;;;;;1.05;0.98;;;;;;;19.85;39.40;98373.91;4918341;29;20516;-67
2022/09/03 00:55:38;;;;;;;1.25;1.02;;;;;;;19.80;39.42;98372.03;4918136;29;20084;-67
2022/09/03 00:58:33;;;;;;;1.23;1.13;;;;;;;19.75;39.70;98361.25;4920262;29;20054;-68
2022/09/03 01:01:09;;;;;;;1.10;0.95;;;;;;;19.70;39.59;98366.59;4920854;29;20156;-68
2022/09/03 01:03:52;;;;;;;0.88;0.82;;;;;;;19.67;39.89;98367.13;4920211;29;20040;-68
2022/09/03 01:06:39;;;;;;;0.70;0.70;;;;;;;19.64;39.81;98379.19;4882575;29;20055;-66
2022/09/03 01:09:44;;;;;;;0.65;0.60;;;;;;;19.64;40.02;98383.75;4883546;29;20080;-67
2022/09/03 01:12:21;;;;;;;0.45;0.45;;;;;;;19.64;40.13;98381.88;4881409;29;20060;-68
2022/09/03 01:15:00;;;;;;;0.40;0.40;;;;;;;19.66;40.23;98382.41;4881208;29;20044;-68
2022/09/03 01:17:52;;;;;;;0.40;0.40;;;;;;;19.65;40.28;98380.00;4883181;29;20416;-68
2022/09/03 01:20:34;;;;;;;0.60;0.50;;;;;;;19.59;40.37;98381.78;4885301;29;20045;-68
2022/09/03 01:23:34;;;;;;;0.40;0.40;;;;;;;19.51;40.71;98379.63;4885829;29;20093;-68
2022/09/03 01:26:21;;;;;;;0.60;0.60;;;;;;;19.44;40.79;98387.09;4884434;29;20049;-66
2022/09/03 01:29:16;;;;;;;0.77;0.70;;;;;;;19.37;41.06;98384.66;4881769;29;20067;-69
2022/09/03 01:32:05;;;;;;;1.40;0.80;;;;;;;19.31;41.16;98383.03;4882977;29;20127;-67
2022/09/03 01:35:08;;;;;;;0.60;0.60;;;;;;;19.23;41.87;98384.31;4911870;29;20428;-71
2022/09/03 01:37:46;;;;;;;0.70;0.70;;;;;;;19.17;42.04;98376.50;4917056;29;20071;-67
2022/09/03 01:40:38;;;;;;;0.82;0.80;;;;;;;19.13;42.49;98384.22;4902617;29;20056;-67
2022/09/03 01:43:35;;;;;;;0.60;0.60;;;;;;;19.07;42.78;98385.28;4917010;29;20044;-68
2022/09/03 01:46:16;;;;;;;0.60;0.60;;;;;;;19.00;43.03;98390.03;4900565;29;20107;-67
2022/09/03 01:49:01;;;;;;;0.73;0.65;;;;;;;18.94;42.78;98402.59;4900702;29;20060;-68
2022/09/03 01:51:29;;;;;;;0.98;0.70;;;;;;;18.89;43.21;98399.84;4900874;29;20052;-68
2022/09/03 01:54:40;;;;;;;0.50;0.50;;;;;;;18.87;43.37;98402.00;4917973;29;20131;-68
2022/09/03 01:57:26;;;;;;;0.68;0.68;;;;;;;18.87;43.79;98398.53;4895702;29;20052;-68
2022/09/03 02:00:11;;;;;;;0.68;0.50;;;;;;;18.87;44.11;98395.84;4918077;29;20055;-68
2022/09/03 02:02:46;;;;;;;0.57;0.57;;;;;;;18.89;43.97;98399.06;4916925;29;20539;-68
2022/09/03 02:05:27;;;;;;;0.50;0.50;;;;;;;18.88;44.14;98398.25;4903337;29;20041;-68
2022/09/03 02:08:06;;;;;;;0.50;0.50;;;;;;;18.91;44.18;98407.66;4917292;29;20488;-67
2022/09/03 02:11:00;;;;;;;1.48;1.00;;;;;;;18.91;43.74;98399.63;4917785;29;20115;-66
2022/09/03 02:13:36;;;;;;;1.70;1.20;;;;;;;18.89;43.63;98401.72;4917743;29;20040;-68
2022/09/03 02:16:13;;;;;;;1.20;1.00;;;;;;;18.90;43.96;98406.84;4919392;29;20052;-68
2022/09/03 02:18:43;;;;;;;1.10;1.00;;;;;;;18.88;43.96;98405.47;4919048;29;20062;-68
2022/09/03 02:21:10;;;;;;;1.02;0.95;;;;;;;18.83;44.55;98397.41;4920634;29;20522;-68
2022/09/03 02:23:39;;;;;;;0.75;0.75;;;;;;;18.82;44.48;98399.28;4920888;29;20131;-68
2022/09/03 02:26:10;;;;;;;0.60;0.60;;;;;;;18.83;44.58;98402.78;4919193;29;20496;-68
2022/09/03 02:28:36;;;;;;;0.60;0.60;;;;;;;18.85;44.75;98404.13;4920125;29;20040;-68
2022/09/03 02:31:04;;;;;;;0.93;0.77;;;;;;;18.87;44.51;98396.66;4919851;29;20062;-69
2022/09/03 02:33:37;;;;;;;0.80;0.80;;;;;;;18.87;44.77;98395.84;4898037;29;20139;-68
2022/09/03 02:36:08;;;;;;;1.05;0.90;;;;;;;18.83;44.89;98402.78;4921060;29;20048;-69
2022/09/03 02:38:34;;;;;;;1.42;1.23;;;;;;;18.80;45.11;98401.41;4922236;29;20048;-68
2022/09/03 02:41:01;;;;;;;0.77;0.73;;;;;;;18.80;44.84;98391.50;4921660;29;20055;-68
2022/09/03 02:43:38;;;;;;;1.08;0.98;;;;;;;18.86;45.16;98391.53;4919563;29;20147;-67
2022/09/03 02:46:11;;;;;;;0.73;0.70;;;;;;;18.88;45.27;98392.91;4920284;29;20439;-67
2022/09/03 02:48:38;;;;;;;0.60;0.60;;;;;;;18.88;45.17;98389.41;4920663;29;20099;-68
2022/09/03 02:51:04;;;;;;;0.63;0.63;;;;;;;18.87;45.46;98393.16;4918198;29;20045;-68
2022/09/03 02:53:41;;;;;;;0.60;0.60;;;;;;;18.84;45.21;98389.13;4918053;29;20044;-68
2022/09/03 02:56:07;;;;;;;1.52;0.60;;;;;;;18.81;45.40;98390.44;4917826;29;20052;-68
2022/09/03 02:58:34;;;;;;;0.50;0.50;;;;;;;18.79;45.57;98389.09;4919562;29;20052;-68
2022/09/03 03:01:01;;;;;;;0.50;0.50;;;;;;;18.79;45.45;98394.44;4918899;29;20052;-68
2022/09/03 03:03:28;;;;;;;1.10;0.90;;;;;;;18.79;45.56;98389.09;4891364;29;20116;-68
2022/09/03 03:05:57;;;;;;;1.52;1.00;;;;;;;18.81;45.17;98390.44;4912271;29;20048;-68
2022/09/03 03:08:27;;;;;;;0.80;0.80;;;;;;;18.77;45.78;98392.00;4916191;29;20532;-68
2022/09/03 03:10:57;;;;;;;0.80;0.80;;;;;;;18.80;45.63;98385.34;4915907;29;20262;-68
2022/09/03 03:13:25;;;;;;;1.10;0.90;;;;;;;18.80;46.04;98388.81;4914494;29;20058;-69
2022/09/03 03:15:59;;;;;;;0.60;0.55;;;;;;;18.80;45.94;98385.34;4915462;29;20055;-69
2022/09/03 03:18:26;;;;;;;0.50;0.50;;;;;;;18.80;46.00;98378.09;4915554;29;20390;-68
2022/09/03 03:20:53;;;;;;;0.50;0.50;;;;;;;18.83;45.96;98387.50;4914293;29;20048;-68
2022/09/03 03:23:20;;;;;;;0.60;0.50;;;;;;;18.83;46.33;98390.19;4914303;29;20524;-68
2022/09/03 03:25:47;;;;;;;0.40;0.40;;;;;;;18.83;46.36;98378.66;4915437;29;20040;-68
2022/09/03 03:28:14;;;;;;;0.40;0.40;;;;;;;18.85;46.28;98389.91;4914129;29;20580;-68
2022/09/03 03:30:41;;;;;;;0.38;0.38;;;;;;;18.85;46.71;98392.59;4914383;29;20052;-68
2022/09/03 03:33:09;;;;;;;0.40;0.40;;;;;;;18.82;46.55;98385.91;4912246;29;20055;-68
2022/09/03 03:35:36;;;;;;;0.50;0.50;;;;;;;18.80;47.06;98393.38;4909795;29;20036;-69
2022/09/03 03:38:03;;;;;;;0.40;0.40;;;;;;;18.78;46.98;98390.16;4915463;29;20465;-68
2022/09/03 03:40:30;;;;;;;0.40;0.40;;;;;;;18.73;46.85;98398.94;4914296;29;20129;-69
2022/09/03 03:42:57;;;;;;;0.40;0.40;;;;;;;18.67;46.81;98402.59;4915561;29;20107;-69
2022/09/03 03:45:24;;;;;;;0.55;0.52;;;;;;;18.62;47.54;98399.91;4914236;29;20516;-69
2022/09/03 03:47:51;;;;;;;0.30;0.30;;;;;;;18.61;47.52;98398.25;4915245;29;20512;-69
2022/09/03 03:50:18;;;;;;;0.43;0.43;;;;;;;18.61;47.44;98402.81;4914195;29;20544;-69
2022/09/03 03:52:45;;;;;;;0.40;0.40;;;;;;;18.60;47.75;98395.84;4900790;29;20059;-68
2022/09/03 03:55:11;;;;;;;0.50;0.50;;;;;;;18.59;48.00;98395.03;4901974;29;20048;-67
2022/09/03 03:57:41;;;;;;;0.30;0.30;;;;;;;18.54;48.17;98398.47;4917672;29;20047;-68
2022/09/03 04:02:58;;;;;;;0.50;0.50;;;;;;;18.48;48.45;98401.34;5145960;23;20067;-68
2022/09/03 04:05:25;;;;;;;0.40;0.40;;;;;;;18.48;48.83;98402.16;4899734;29;20051;-68
2022/09/03 04:07:52;;;;;;;0.50;0.50;;;;;;;18.47;49.16;98407.78;4899884;29;20048;-68
2022/09/03 04:10:18;;;;;;;0.63;0.60;;;;;;;18.45;49.07;98407.22;4900098;29;20417;-68
2022/09/03 04:12:45;;;;;;;0.45;0.45;;;;;;;18.38;49.06;98411.97;4883157;29;20433;-68
2022/09/03 04:15:11;;;;;;;0.50;0.50;;;;;;;18.31;49.24;98414.84;4899291;29;20143;-68
2022/09/03 04:17:38;;;;;;;0.50;0.50;;;;;;;18.26;49.38;98407.56;4898153;29;20056;-68
2022/09/03 04:20:05;;;;;;;0.40;0.40;;;;;;;18.25;49.52;98405.97;4899581;29;20515;-68
2022/09/03 04:22:32;;;;;;;1.00;0.90;;;;;;;18.24;49.43;98403.53;4899598;29;20053;-68
2022/09/03 04:24:59;;;;;;;0.70;0.70;;;;;;;18.22;49.83;98400.31;4899682;29;20044;-68
2022/09/03 04:27:25;;;;;;;1.23;0.60;;;;;;;18.18;50.13;98417.91;4899331;29;20053;-68
2022/09/03 04:29:52;;;;;;;0.90;0.90;;;;;;;18.14;50.14;98419.47;4899453;29;20049;-68
2022/09/03 04:35:04;;;;;;;0.77;0.77;;;;;;;18.05;50.92;98424.47;4909775;29;20044;-67
2022/09/03 04:37:32;;;;;;;0.63;0.63;;;;;;;18.03;51.06;98418.53;4917985;29;20044;-67
2022/09/03 04:39:58;;;;;;;0.82;0.70;;;;;;;17.99;50.99;98431.59;4918098;29;20059;-66
2022/09/03 04:42:26;;;;;;;0.70;0.70;;;;;;;17.95;51.18;98435.84;4916725;29;20067;-67
2022/09/03 04:44:53;;;;;;;1.23;0.90;;;;;;;17.93;51.88;98450.53;4917814;29;20059;-66
2022/09/03 04:47:19;;;;;;;1.13;1.00;;;;;;;17.93;52.39;98445.19;4916318;29;20044;-68
2022/09/03 04:49:46;;;;;;;0.90;0.90;;;;;;;17.95;53.07;98453.75;4901029;29;20056;-68
2022/09/03 04:52:12;;;;;;;0.80;0.80;;;;;;;17.94;53.12;98457.50;4916566;29;20052;-68
2022/09/03 04:54:39;;;;;;;1.05;0.88;;;;;;;17.94;53.99;98462.84;4917869;29;20051;-68
2022/09/03 04:57:05;;;;;;;1.52;1.30;;;;;;;17.89;54.17;98463.59;4917716;29;20143;-67
2022/09/03 04:59:32;;;;;;;1.63;1.30;;;;;;;17.78;54.72;98470.66;4916442;29;20412;-67
2022/09/03 05:01:58;;;;;;;2.45;1.30;;;;;;;17.69;55.49;98480.13;4915470;29;20044;-67
2022/09/03 05:04:25;;;;;;;1.55;1.10;;;;;;;17.64;55.88;98482.75;4885266;29;20081;-66
2022/09/03 05:06:51;;;;;;;0.88;0.80;;;;;;;17.66;56.22;98480.63;4912943;29;20408;-68
2022/09/03 05:09:18;;;;;;;0.95;0.88;;;;;;;17.70;56.68;98480.94;4917550;29;20048;-67
2022/09/03 05:11:45;;;;;;;2.55;1.48;;;;;;;17.69;56.45;98480.13;4916179;29;20052;-67
2022/09/03 05:14:12;;;;;;;2.60;2.10;;;;;;;17.60;56.84;98472.78;4916245;29;20055;-68
2022/09/03 05:16:38;;;;;;;2.40;2.20;;;;;;;17.54;57.33;98469.22;4900265;29;20044;-67
2022/09/03 05:19:06;;;;;;;2.75;2.08;;;;;;;17.46;58.14;98478.44;4917238;29;20083;-67
2022/09/03 05:21:37;;;;;;;6.75;5.63;;;;;;;17.45;58.24;98471.50;4916173;29;20056;-67
2022/09/03 05:24:04;;;;;;;6.00;4.82;;;;;;;17.45;58.09;98468.03;4916255;29;20083;-67
2022/09/03 05:26:33;;;;;;;4.03;3.20;;;;;;;17.37;58.46;98465.75;4900039;29;20048;-67
2022/09/03 05:29:01;;;;;;;3.15;2.80;;;;;;;17.30;58.83;98465.91;4915823;29;20052;-67
2022/09/03 05:31:30;;;;;;;4.47;2.63;;;;;;;17.26;59.65;98467.47;4917274;29;20044;-68
2022/09/03 05:33:59;;;;;;;3.03;2.33;;;;;;;17.24;59.92;98458.91;4908831;29;20131;-67
2022/09/03 05:36:29;;;;;;;4.53;2.65;;;;;;;17.22;59.97;98451.09;4915498;29;20059;-67
2022/09/03 05:38:57;;;;;;;3.33;2.50;;;;;;;17.19;60.61;98456.16;4917086;29;20090;-67
2022/09/03 05:41:25;;;;;;;2.35;1.98;;;;;;;17.15;60.95;98466.50;4916952;29;20127;-68
2022/09/03 05:43:57;;;;;;;2.90;2.10;;;;;;;17.19;61.62;98466.84;4900231;29;20056;-67
2022/09/03 05:46:30;;;;;;;5.53;2.47;;;;;;;17.18;61.20;98459.84;4916816;29;20048;-67
2022/09/03 05:49:03;;;;;;;2.25;1.80;;;;;;;17.09;61.36;98462.94;4916733;29;20127;-67
2022/09/03 05:51:30;;;;;;;3.08;1.83;;;;;;;17.02;61.62;98451.63;4916751;29;20055;-67
2022/09/03 05:53:57;;;;;;;3.78;2.17;;;;;;;16.93;62.03;98458.41;4915438;29;20111;-67
2022/09/03 05:56:26;;;;;;;2.40;1.70;;;;;;;16.83;62.72;98466.25;4916656;29;20059;-67
2022/09/03 05:58:55;;;;;;;1.42;1.33;;;;;;;16.83;62.79;98460.91;4916726;29;20051;-67
2022/09/03 06:01:31;;;;;;;2.25;2.00;;;;;;;16.80;62.50;98467.53;4916652;29;20066;-68
2022/09/03 06:04:03;;;;;;;1.52;1.38;;;;;;;16.78;63.56;98476.84;4906894;29;20048;-68
2022/09/03 06:06:31;;;;;;;1.95;1.33;;;;;;;16.80;63.43;98482.75;4910175;29;20271;-68
2022/09/03 06:09:01;;;;;;;2.90;1.80;;;;;;;16.86;63.20;98472.94;4916508;29;20048;-68
2022/09/03 06:11:29;;;;;;;3.13;2.00;;;;;;;16.79;63.47;98457.09;4915389;29;20087;-68
2022/09/03 06:14:00;;;;;;;2.35;1.80;;;;;;;16.70;63.62;98454.00;4916481;29;20040;-68
2022/09/03 06:16:28;;;;;;;2.65;1.63;;;;;;;16.64;64.57;98468.28;4914726;29;20054;-68
2022/09/03 06:18:58;;;;;;;2.00;1.50;;;;;;;16.71;64.97;98473.47;4916878;29;20048;-67
2022/09/03 06:21:25;;;;;;;3.05;1.98;;;;;;;16.80;64.89;98474.72;4916721;29;20401;-68
2022/09/03 06:23:56;;;;;;;2.72;1.80;;;;;;;16.88;64.77;98482.34;4916510;29;20444;-68
2022/09/03 06:26:29;;;;;;;2.75;1.98;;;;;;;16.94;64.60;98472.56;4916034;29;20528;-68
2022/09/03 06:28:56;;;;;;;1.60;1.50;;;;;;;16.95;64.82;98468.84;4916345;29;20066;-68
2022/09/03 06:31:24;;;;;;;1.70;1.60;;;;;;;16.97;64.99;98464.88;4916100;29;20055;-68
2022/09/03 06:33:51;;;;;;;4.03;2.20;;;;;;;17.02;65.20;98472.16;4908425;29;20218;-68
2022/09/03 06:36:19;;;;;;;2.10;1.65;;;;;;;17.08;65.27;98468.53;4909560;29;20052;-68
2022/09/03 06:38:46;;;;;;;4.53;2.58;;;;;;;17.09;65.13;98457.59;4916146;29;20496;-68
2022/09/03 06:41:22;;;;;;;2.67;2.03;;;;;;;17.11;65.51;98464.56;4915128;29;20162;-65
2022/09/03 06:43:51;;;;;;;3.67;2.25;;;;;;;17.14;65.65;98461.41;4916126;29;20063;-65
2022/09/03 06:46:21;;;;;;;2.28;2.00;;;;;;;17.18;65.71;98465.19;4915705;29;20051;-65
2022/09/03 06:48:50;;;;;;;2.13;1.92;;;;;;;17.19;66.01;98458.81;4915944;29;20540;-65
2022/09/03 06:51:20;;;;;;;3.10;2.38;;;;;;;17.21;66.21;98457.50;4915905;29;20054;-65
2022/09/03 06:53:49;;;;;;;4.75;2.80;;;;;;;17.22;65.91;98467.13;4915955;29;20052;-65
2022/09/03 06:56:25;;;;;;;3.10;2.08;;;;;;;17.20;66.29;98477.28;4915858;29;20066;-65
2022/09/03 06:58:54;;;;;;;2.22;2.03;;;;;;;17.25;66.80;98484.56;4918772;29;20059;-67
2022/09/03 07:01:23;;;;;;;2.00;1.77;;;;;;;17.29;66.71;98481.16;4917728;29;20435;-67
2022/09/03 07:03:56;;;;;;;1.98;1.88;;;;;;;17.32;67.22;98491.34;4908220;29;20052;-67
2022/09/03 07:06:25;;;;;;;4.72;3.50;;;;;;;17.36;67.01;98489.00;4908376;29;20052;-67
2022/09/03 07:08:53;;;;;;;5.00;3.60;;;;;;;17.38;67.06;98500.25;4914614;29;20063;-67
2022/09/03 07:11:22;;;;;;;4.00;3.08;;;;;;;17.38;67.43;98497.56;4915685;29;20048;-67
2022/09/03 07:13:50;;;;;;;6.15;4.05;;;;;;;17.37;67.12;98484.47;4914913;29;20550;-68
2022/09/03 07:16:20;;;;;;;4.72;3.45;;;;;;;17.33;67.56;98484.13;4914334;29;20048;-66
2022/09/03 07:18:47;;;;;;;4.05;3.47;;;;;;;17.30;67.59;98480.09;4915565;29;20048;-67
2022/09/03 07:21:16;;;;;;;3.42;2.85;;;;;;;17.31;68.14;98492.41;4915705;29;20044;-67
2022/09/03 07:23:44;;;;;;;2.33;1.90;;;;;;;17.34;68.53;98497.25;4914387;29;20059;-68
2022/09/03 07:26:16;;;;;;;2.40;1.77;;;;;;;17.42;68.36;98488.00;4915635;29;20045;-67
2022/09/03 07:28:44;;;;;;;3.83;2.45;;;;;;;17.42;68.20;98482.66;4918324;29;20400;-68
2022/09/03 07:31:24;;;;;;;3.47;2.60;;;;;;;17.40;68.82;98473.31;4919239;29;20067;-68
2022/09/03 07:33:55;;;;;;;2.92;2.33;;;;;;;17.38;68.97;98483.41;4910298;29;20047;-68
2022/09/03 07:36:24;;;;;;;3.35;2.08;;;;;;;17.43;69.23;98483.47;4912865;29;20041;-68
2022/09/03 07:38:54;;;;;;;3.03;2.20;;;;;;;17.51;69.30;98483.06;4919408;29;20552;-68
2022/09/03 07:41:22;;;;;;;3.30;2.15;;;;;;;17.54;69.26;98486.06;4918146;29;20055;-68
2022/09/03 07:43:55;;;;;;;4.97;2.63;;;;;;;17.57;69.24;98482.91;4919259;29;20115;-67
2022/09/03 07:46:25;;;;;;;3.13;2.72;;;;;;;17.63;69.38;98488.31;4919225;29;20126;-67
2022/09/03 07:48:54;;;;;;;4.32;2.72;;;;;;;17.66;69.31;98488.63;4919090;29;20090;-68
2022/09/03 07:51:27;;;;;;;2.20;2.00;;;;;;;17.69;69.88;98482.81;4917578;29;20052;-67
2022/09/03 07:53:57;;;;;;;3.63;2.40;;;;;;;17.77;69.54;98482.41;4917521;29;20468;-67
2022/09/03 07:56:25;;;;;;;4.63;2.83;;;;;;;17.83;69.75;98477.94;4918555;29;20408;-67
2022/09/03 07:58:54;;;;;;;3.20;2.45;;;;;;;17.91;69.67;98487.38;4918679;29;20071;-68
2022/09/03 08:01:22;;;;;;;3.08;1.83;;;;;;;18.05;70.22;98499.34;4917367;29;20424;-67
2022/09/03 08:03:51;;;;;;;2.47;2.28;;;;;;;18.18;69.49;98507.00;4911247;29;20048;-68
2022/09/03 08:06:23;;;;;;;3.17;2.40;;;;;;;18.26;69.22;98503.09;4911768;29;20400;-67
2022/09/03 08:08:58;;;;;;;2.15;1.85;;;;;;;18.39;68.93;98508.06;4918651;29;20044;-68
2022/09/03 08:11:35;;;;;;;3.42;2.25;;;;;;;18.54;68.56;98512.78;4917280;29;20047;-68
2022/09/03 08:14:07;;;;;;;2.55;2.00;;;;;;;18.62;68.29;98515.00;4917269;29;20052;-67
2022/09/03 08:16:36;;;;;;;3.13;2.83;;;;;;;18.68;67.66;98516.66;4918469;29;20403;-68
2022/09/03 08:19:04;;;;;;;7.32;4.50;;;;;;;18.66;67.38;98518.78;4917088;29;20075;-68
2022/09/03 08:21:30;;;;;;;5.80;3.70;;;;;;;18.64;66.64;98514.75;4901705;29;20063;-68
2022/09/03 08:24:03;;;;;;;5.32;3.60;;;;;;;18.62;67.04;98512.31;4917113;29;20451;-67
2022/09/03 08:26:33;;;;;;;3.45;2.60;;;;;;;18.68;66.93;98515.84;4916868;29;20054;-67
2022/09/03 08:29:00;;;;;;;3.22;2.55;;;;;;;18.77;67.19;98519.72;4918337;29;20048;-66
2022/09/03 08:31:28;;;;;;;3.55;2.97;;;;;;;18.86;66.66;98514.72;4918173;29;20127;-67
2022/09/03 08:33:56;;;;;;;2.58;2.38;;;;;;;18.96;66.56;98518.31;4909952;29;20091;-67
2022/09/03 08:36:26;;;;;;;2.67;2.45;;;;;;;19.08;66.35;98515.47;4910731;29;20047;-65
2022/09/03 08:38:54;;;;;;;2.92;2.33;;;;;;;19.16;66.06;98524.91;4916890;29;20048;-66
2022/09/03 08:41:54;;;;;;;2.40;2.20;;;;;;;19.22;66.07;98529.25;4918556;29;20052;-66
2022/09/03 08:44:35;;;;;;;3.42;2.30;;;;;;;19.30;66.00;98534.94;4917186;29;20048;-67
2022/09/03 08:47:22;;;;;;;2.78;2.40;;;;;;;19.48;65.30;98535.63;4917931;29;20052;-66
2022/09/03 08:50:16;;;;;;;2.53;2.30;;;;;;;19.58;65.08;98529.53;4901273;29;20082;-64
2022/09/03 08:52:53;;;;;;;3.47;2.40;;;;;;;19.65;64.97;98535.50;4900926;29;20104;-65
2022/09/03 08:55:27;;;;;;;3.53;2.22;;;;;;;19.72;64.98;98544.16;4916947;29;20051;-64
2022/09/03 08:58:04;;;;;;;2.40;2.13;;;;;;;19.89;64.77;98543.97;4917778;29;20515;-64
2022/09/03 09:00:45;;;;;;;2.63;2.42;;;;;;;20.08;64.70;98541.66;4917855;29;20059;-64
2022/09/03 09:03:42;;;;;;;3.70;3.15;;;;;;;20.27;64.16;98540.16;4911369;29;20071;-65
2022/09/03 09:06:34;;;;;;;2.83;2.60;;;;;;;20.43;64.00;98544.50;4902946;29;20047;-65
2022/09/03 09:09:17;;;;;;;2.42;2.22;;;;;;;20.58;63.74;98543.00;4918177;29;20127;-64
2022/09/03 09:12:08;;;;;;;2.40;2.20;;;;;;;20.75;63.27;98544.38;4918101;29;20062;-64
2022/09/03 09:14:44;;;;;;;2.35;2.13;;;;;;;20.85;62.49;98538.22;4919835;29;20044;-65
2022/09/03 09:17:26;;;;;;;2.60;2.40;;;;;;;20.97;62.32;98546.81;4918320;29;20058;-65
2022/09/03 09:20:14;;;;;;;2.85;2.58;;;;;;;20.99;62.55;98542.00;4919364;29;20126;-65
2022/09/03 09:22:45;;;;;;;4.00;3.30;;;;;;;21.05;62.33;98540.13;4919962;29;20052;-65
2022/09/03 09:25:18;;;;;;;3.33;2.50;;;;;;;21.10;62.60;98544.69;4918269;29;20449;-65
2022/09/03 09:27:58;;;;;;;2.45;2.13;;;;;;;21.20;62.41;98534.75;4919387;29;20048;-65
2022/09/03 09:30:25;;;;;;;2.20;2.03;;;;;;;21.38;62.43;98543.41;4918483;29;20059;-64
2022/09/03 09:32:52;;;;;;;2.97;1.95;;;;;;;21.51;62.03;98545.53;4913712;29;20112;-64
2022/09/03 09:35:19;;;;;;;3.00;2.38;;;;;;;21.66;61.93;98537.47;4913179;29;20135;-65
2022/09/03 09:37:51;;;;;;;3.03;2.70;;;;;;;21.69;61.36;98547.69;4921322;29;20143;-64
2022/09/03 09:40:39;;;;;;;3.55;2.28;;;;;;;21.71;61.89;98552.78;4921555;29;20052;-64
2022/09/03 09:43:18;;;;;;;2.42;2.22;;;;;;;21.73;61.36;98548.75;4905408;29;20056;-65
2022/09/03 09:45:47;;;;;;;2.30;2.10;;;;;;;21.78;61.36;98550.63;4921698;29;20396;-64
2022/09/03 09:48:22;;;;;;;2.10;1.88;;;;;;;21.84;61.68;98548.72;4920369;29;20497;-65
2022/09/03 09:50:49;;;;;;;2.75;2.40;;;;;;;21.84;61.21;98546.88;4919447;29;20071;-66
2022/09/03 09:53:20;;;;;;;2.17;1.98;;;;;;;21.79;61.34;98551.44;4919380;29;20052;-65
2022/09/03 09:55:53;;;;;;;2.08;1.90;;;;;;;21.79;61.35;98549.53;4919108;29;20055;-66
2022/09/03 09:58:22;;;;;;;1.90;1.70;;;;;;;21.80;61.52;98553.88;4901886;29;20048;-64
2022/09/03 10:01:13;;;;;;;1.55;1.45;;;;;;;21.87;61.82;98554.38;4917888;29;20067;-66
2022/09/03 10:03:52;;;;;;;2.03;1.92;;;;;;;21.91;61.15;98551.94;4913891;29;20058;-67
2022/09/03 10:09:16;;;;;;;1.80;1.50;;;;;;;22.01;61.10;98547.34;4919710;29;20048;-68
2022/09/03 10:11:55;;;;;;;1.30;1.20;;;;;;;21.94;61.27;98546.81;4919133;29;20514;-68
2022/09/03 10:14:31;;;;;;;1.55;1.45;;;;;;;21.91;60.92;98546.56;4918220;29;20155;-67
2022/09/03 10:17:13;;;;;;;1.75;1.65;;;;;;;21.95;61.01;98547.63;4916188;23;20049;-67
2022/09/03 10:20:25;;;;;;;1.30;1.20;;;;;;;22.22;60.84;98550.03;4908460;29;20093;-67
2022/09/03 10:22:40;;;;;;;1.00;1.00;;;;;;;22.56;60.32;98555.53;4878756;29;20045;-67
2022/09/03 10:25:25;;;;;;;1.30;1.20;;;;;;;22.94;59.71;98548.63;4877887;29;20057;-67
2022/09/03 10:27:53;;;;;;;1.27;1.17;;;;;;;23.19;59.16;98544.16;4878636;29;20045;-67
2022/09/03 10:30:19;;;;;;;1.02;1.02;;;;;;;23.29;58.54;98551.34;4893379;29;20087;-68
2022/09/03 10:33:13;;;;;;;2.00;1.77;;;;;;;23.42;57.89;98545.28;4884817;29;20055;-68
2022/09/03 10:35:50;;;;;;;1.75;1.65;;;;;;;23.50;57.59;98547.38;4909140;29;20048;-67
2022/09/03 10:38:24;;;;;;;1.15;1.08;;;;;;;23.53;57.46;98540.63;4916716;29;20054;-67
2022/09/03 10:41:09;;;;;;;1.85;1.70;;;;;;;23.62;57.00;98539.72;4916677;29;20063;-67
2022/09/03 10:44:11;;;;;;;1.60;1.50;;;;;;;23.60;56.25;98539.22;4916933;29;20052;-70
2022/09/03 10:46:57;;;;;;;1.10;1.00;;;;;;;23.57;56.75;98537.06;4915221;29;20074;-68
2022/09/03 10:49:52;;;;;;;0.60;0.60;;;;;;;23.61;56.57;98535.41;4916301;29;20078;-67
2022/09/03 10:52:29;;;;;;;0.85;0.85;;;;;;;23.61;56.34;98526.53;4915074;29;20493;-67
2022/09/03 10:55:16;;;;;;;0.70;0.70;;;;;;;23.65;56.20;98527.56;4916192;29;20047;-67
2022/09/03 10:57:49;;;;;;;1.33;1.23;;;;;;;23.85;56.13;98532.00;4914878;29;20040;-67
2022/09/03 11:00:18;;;;;;;2.00;1.90;;;;;;;24.16;55.05;98530.53;4916290;29;20619;-66
2022/09/03 11:03:01;;;;;;;1.15;1.15;;;;;;;24.40;54.61;98532.47;4912152;29;20059;-67
2022/09/03 11:05:57;;;;;;;0.90;0.90;;;;;;;24.54;53.95;98527.16;4912137;29;20496;-66
2022/09/03 11:08:33;;;;;;;0.70;0.70;;;;;;;24.53;53.83;98518.22;4920018;29;20143;-67
2022/09/03 11:11:10;;;;;;;0.85;0.85;;;;;;;24.61;53.53;98511.38;4918992;29;20131;-67
2022/09/03 11:13:45;;;;;;;0.90;0.90;;;;;;;24.85;53.15;98511.31;4920357;29;20047;-68
2022/09/03 11:16:31;;;;;;;1.30;1.20;;;;;;;24.91;53.10;98508.25;4920337;29;20046;-67
2022/09/03 11:19:05;;;;;;;0.88;0.88;;;;;;;24.62;52.64;98515.72;4919530;29;20059;-67
2022/09/03 11:21:35;;;;;;;1.10;1.00;;;;;;;24.26;53.15;98507.22;4921182;29;20054;-67
2022/09/03 11:24:20;;;;;;;0.70;0.70;;;;;;;23.94;53.67;98514.06;4920218;29;20062;-67
2022/09/03 11:26:54;;;;;;;0.60;0.60;;;;;;;23.85;53.93;98516.59;4920327;29;20424;-67
2022/09/03 11:29:36;;;;;;;0.60;0.60;;;;;;;23.94;54.17;98516.75;4919309;29;20052;-65
2022/09/03 11:32:20;;;;;;;0.70;0.70;;;;;;;24.27;53.52;98516.94;4917591;29;20052;-65
2022/09/03 11:34:50;;;;;;;0.75;0.75;;;;;;;24.52;53.19;98502.31;4907979;29;20501;-66
2022/09/03 11:37:21;;;;;;;0.80;0.80;;;;;;;24.53;52.68;98504.72;4919001;29;20139;-66
2022/09/03 11:40:18;;;;;;;0.80;0.80;;;;;;;24.55;52.86;98499.03;4920495;29;20056;-69
2022/09/03 11:42:45;;;;;;;0.82;0.82;;;;;;;24.66;52.47;98500.50;4919689;29;20125;-66
2022/09/03 11:45:20;;;;;;;1.05;0.77;;;;;;;24.75;52.49;98492.53;4920194;29;20044;-66
2022/09/03 11:47:48;;;;;;;0.70;0.70;;;;;;;24.87;52.29;98490.19;4919366;29;20139;-66
2022/09/03 11:50:24;;;;;;;0.88;0.80;;;;;;;24.87;51.51;98488.31;4902729;29;20048;-66
2022/09/03 11:52:55;;;;;;;0.80;0.80;;;;;;;25.01;51.41;98479.44;4919461;29;20044;-66
2022/09/03 11:55:24;;;;;;;0.85;0.85;;;;;;;25.08;51.07;98479.88;4918063;29;20060;-66
2022/09/03 11:57:51;;;;;;;0.60;0.60;;;;;;;25.16;51.03;98471.91;4919345;29;20119;-66
2022/09/03 12:00:20;;;;;;;0.77;0.77;;;;;;;25.25;51.12;98471.22;4919019;29;20046;-66
2022/09/03 12:02:53;;;;;;;0.60;0.60;;;;;;;25.36;50.57;98469.97;4911177;29;20044;-66
2022/09/03 12:06:02;;;;;;;0.65;0.60;;;;;;;25.37;50.48;98466.94;4909781;29;20048;-66
2022/09/03 12:08:37;;;;;;;1.27;1.17;;;;;;;25.34;50.53;98470.25;4917969;29;20151;-67
2022/09/03 12:11:24;;;;;;;1.98;1.40;;;;;;;25.48;50.33;98473.00;4917603;29;20062;-66
2022/09/03 12:14:04;;;;;;;2.17;1.48;;;;;;;25.41;49.40;98470.66;4918212;29;20136;-67
2022/09/03 12:16:36;;;;;;;1.70;1.60;;;;;;;25.36;50.13;98462.66;4901918;29;20431;-67